sensor_id;sensor_type;location;lat;lon;timestamp;pressure;altitude;pressure_sealevel;temperature;humidity
10093;BME280;5085;48.092;11.484;2022-12-11T00:00:11;94315.44;;;-0.96;100.00
10093;BME280;5085;48.092;11.484;2022-12-11T00:02:40;94312.19;;;-0.98;100.00
10093;BME280;5085;48.092;11.484;2022-12-11T00:05:06;94316.91;;;-1.01;100.00
10093;BME280;5085;48.092;11.484;2022-12-11T00:07:32;94317.94;;;-1.02;100.00
10093;BME280;5085;48.092;11.484;2022-12-11T00:09:58;94313.09;;;-1.05;100.00
10093;BME280;5085;48.092;11.484;2022-12-11T00:12:24;94318.38;;;-1.05;100.00
10093;BME280;5085;48.092;11.484;2022-12-11T00:14:50;94313.09;;;-1.05;100.00
10093;BME280;5085;48.092;11.484;2022-12-11T00:17:17;94315.75;;;-1.05;100.00
10093;BME280;5085;48.092;11.484;2022-12-11T00:19:43;94314.94;;;-1.05;100.00
10093;BME280;5085;48.092;11.484;2022-12-11T00:22:09;94307.22;;;-1.07;100.00
10093;BME280;5085;48.092;11.484;2022-12-11T00:24:35;94312.72;;;-1.08;100.00
10093;BME280;5085;48.092;11.484;2022-12-11T00:27:01;94308.25;;;-1.08;100.00
10093;BME280;5085;48.092;11.484;2022-12-11T00:29:27;94318.81;;;-1.08;100.00
10093;BME280;5085;48.092;11.484;2022-12-11T00:31:53;94317.22;;;-1.09;100.00
10093;BME280;5085;48.092;11.484;2022-12-11T00:34:19;94318.38;;;-1.05;100.00
10093;BME280;5085;48.092;11.484;2022-12-11T00:36:45;94313.34;;;-1.06;100.00
10093;BME280;5085;48.092;11.484;2022-12-11T00:39:11;94309.84;;;-1.07;100.00
10093;BME280;5085;48.092;11.484;2022-12-11T00:41:37;94321.09;;;-1.11;100.00
10093;BME280;5085;48.092;11.484;2022-12-11T00:44:03;94320.16;;;-1.17;100.00
10093;BME280;5085;48.092;11.484;2022-12-11T00:46:29;94317.75;;;-1.18;100.00
10093;BME280;5085;48.092;11.484;2022-12-11T00:48:55;94310.50;;;-1.23;100.00
10093;BME280;5085;48.092;11.484;2022-12-11T00:51:21;94312.53;;;-1.25;100.00
10093;BME280;5085;48.092;11.484;2022-12-11T00:53:47;94314.13;;;-1.24;100.00
10093;BME280;5085;48.092;11.484;2022-12-11T00:56:16;94316.78;;;-1.24;100.00
10093;BME280;5085;48.092;11.484;2022-12-11T00:58:44;94317.25;;;-1.27;100.00
10093;BME280;5085;48.092;11.484;2022-12-11T01:01:13;94315.84;;;-1.30;100.00
10093;BME280;5085;48.092;11.484;2022-12-11T01:03:39;94324.78;;;-1.31;100.00
10093;BME280;5085;48.092;11.484;2022-12-11T01:06:06;94318.09;;;-1.33;100.00
10093;BME280;5085;48.092;11.484;2022-12-11T01:08:32;94326.25;;;-1.35;100.00
10093;BME280;5085;48.092;11.484;2022-12-11T01:11:04;94325.28;;;-1.40;100.00
10093;BME280;5085;48.092;11.484;2022-12-11T01:13:30;94324.72;;;-1.42;100.00
10093;BME280;5085;48.092;11.484;2022-12-11T01:15:56;94331.22;;;-1.45;100.00
10093;BME280;5085;48.092;11.484;2022-12-11T01:18:23;94331.22;;;-1.45;100.00
10093;BME280;5085;48.092;11.484;2022-12-11T01:20:49;94332.50;;;-1.47;100.00
10093;BME280;5085;48.092;11.484;2022-12-11T01:23:15;94342.03;;;-1.46;100.00
10093;BME280;5085;48.092;11.484;2022-12-11T01:25:41;94332.50;;;-1.47;100.00
10093;BME280;5085;48.092;11.484;2022-12-11T01:28:08;94338.34;;;-1.45;100.00
10093;BME280;5085;48.092;11.484;2022-12-11T01:30:34;94352.16;;;-1.43;100.00
10093;BME280;5085;48.092;11.484;2022-12-11T01:33:01;94353.75;;;-1.42;100.00
10093;BME280;5085;48.092;11.484;2022-12-11T01:35:28;94356.97;;;-1.40;100.00
10093;BME280;5085;48.092;11.484;2022-12-11T01:37:54;94358.00;;;-1.41;100.00
10093;BME280;5085;48.092;11.484;2022-12-11T01:40:20;94358.00;;;-1.41;100.00
10093;BME280;5085;48.092;11.484;2022-12-11T01:42:46;94361.69;;;-1.42;100.00
10093;BME280;5085;48.092;11.484;2022-12-11T01:45:37;94360.44;;;-1.40;100.00
10093;BME280;5085;48.092;11.484;2022-12-11T01:48:21;94359.19;;;-1.37;100.00
10093;BME280;5085;48.092;11.484;2022-12-11T01:50:57;94369.16;;;-1.39;100.00
10093;BME280;5085;48.092;11.484;2022-12-11T01:53:58;94358.59;;;-1.39;100.00
10093;BME280;5085;48.092;11.484;2022-12-11T01:56:25;94363.88;;;-1.39;100.00
10093;BME280;5085;48.092;11.484;2022-12-11T01:58:55;94361.81;;;-1.37;100.00
10093;BME280;5085;48.092;11.484;2022-12-11T02:01:44;94358.97;;;-1.36;100.00
10093;BME280;5085;48.092;11.484;2022-12-11T02:04:14;94360.59;;;-1.35;100.00
10093;BME280;5085;48.092;11.484;2022-12-11T02:06:46;94361.16;;;-1.33;100.00
10093;BME280;5085;48.092;11.484;2022-12-11T02:09:15;94367.25;;;-1.32;100.00
10093;BME280;5085;48.092;11.484;2022-12-11T02:12:08;94358.31;;;-1.31;100.00
10093;BME280;5085;48.092;11.484;2022-12-11T02:19:59;94353.84;;;-1.31;100.00
10093;BME280;5085;48.092;11.484;2022-12-11T02:28:20;94341.88;;;-1.33;100.00
10093;BME280;5085;48.092;11.484;2022-12-11T02:31:22;94341.31;;;-1.35;100.00
10093;BME280;5085;48.092;11.484;2022-12-11T02:33:58;94346.78;;;-1.37;100.00
10093;BME280;5085;48.092;11.484;2022-12-11T02:36:28;94343.56;;;-1.39;100.00
10093;BME280;5085;48.092;11.484;2022-12-11T02:38:57;94336.88;;;-1.41;100.00
10093;BME280;5085;48.092;11.484;2022-12-11T02:41:26;94352.16;;;-1.43;100.00
10093;BME280;5085;48.092;11.484;2022-12-11T02:43:55;94340.78;;;-1.44;100.00
10093;BME280;5085;48.092;11.484;2022-12-11T02:46:23;94349.50;;;-1.43;100.00
10093;BME280;5085;48.092;11.484;2022-12-11T02:48:49;94348.91;;;-1.45;100.00
10093;BME280;5085;48.092;11.484;2022-12-11T02:51:20;94347.53;;;-1.48;100.00
10093;BME280;5085;48.092;11.484;2022-12-11T02:53:48;94351.19;;;-1.49;100.00
10093;BME280;5085;48.092;11.484;2022-12-11T02:56:21;94350.16;;;-1.48;100.00
10093;BME280;5085;48.092;11.484;2022-12-11T02:58:54;94346.94;;;-1.50;100.00
10093;BME280;5085;48.092;11.484;2022-12-11T03:01:20;94352.44;;;-1.52;100.00
10093;BME280;5085;48.092;11.484;2022-12-11T03:03:46;94350.38;;;-1.49;100.00
10093;BME280;5085;48.092;11.484;2022-12-11T03:06:16;94357.72;;;-1.52;100.00
10093;BME280;5085;48.092;11.484;2022-12-11T03:08:43;94355.28;;;-1.53;100.00
10093;BME280;5085;48.092;11.484;2022-12-11T03:11:11;94352.44;;;-1.52;100.00
10093;BME280;5085;48.092;11.484;2022-12-11T03:13:38;94353.47;;;-1.53;100.00
10093;BME280;5085;48.092;11.484;2022-12-11T03:16:19;94351.84;;;-1.54;100.00
10093;BME280;5085;48.092;11.484;2022-12-11T03:18:54;94354.13;;;-1.57;100.00
10093;BME280;5085;48.092;11.484;2022-12-11T03:24:38;94363.44;;;-1.55;100.00
10093;BME280;5085;48.092;11.484;2022-12-11T03:27:08;94357.13;;;-1.54;100.00
10093;BME280;5085;48.092;11.484;2022-12-11T03:29:41;94362.38;;;-1.54;100.00
10093;BME280;5085;48.092;11.484;2022-12-11T03:32:19;94358.94;;;-1.54;100.00
10093;BME280;5085;48.092;11.484;2022-12-11T03:34:56;94363.84;;;-1.58;100.00
10093;BME280;5085;48.092;11.484;2022-12-11T03:37:25;94371.56;;;-1.56;100.00
10093;BME280;5085;48.092;11.484;2022-12-11T03:39:57;94369.97;;;-1.57;100.00
10093;BME280;5085;48.092;11.484;2022-12-11T03:42:25;94368.34;;;-1.58;100.00
10093;BME280;5085;48.092;11.484;2022-12-11T03:44:53;94373.41;;;-1.57;100.00
10093;BME280;5085;48.092;11.484;2022-12-11T03:47:23;94371.78;;;-1.58;100.00
10093;BME280;5085;48.092;11.484;2022-12-11T03:49:51;94368.13;;;-1.57;100.00
10093;BME280;5085;48.092;11.484;2022-12-11T03:52:18;94371.34;;;-1.55;100.00
10093;BME280;5085;48.092;11.484;2022-12-11T03:54:46;94372.59;;;-1.57;100.00
10093;BME280;5085;48.092;11.484;2022-12-11T03:57:16;94377.88;;;-1.57;100.00
10093;BME280;5085;48.092;11.484;2022-12-11T03:59:43;94374.22;;;-1.56;100.00
10093;BME280;5085;48.092;11.484;2022-12-11T04:02:10;94380.28;;;-1.56;100.00
10093;BME280;5085;48.092;11.484;2022-12-11T04:04:37;94377.44;;;-1.54;100.00
10093;BME280;5085;48.092;11.484;2022-12-11T04:07:03;94378.03;;;-1.52;100.00
10093;BME280;5085;48.092;11.484;2022-12-11T04:09:29;94373.75;;;-1.53;100.00
10093;BME280;5085;48.092;11.484;2022-12-11T04:11:55;94367.66;;;-1.54;100.00
10093;BME280;5085;48.092;11.484;2022-12-11T04:14:21;94367.09;;;-1.56;100.00
10093;BME280;5085;48.092;11.484;2022-12-11T04:17:06;94374.41;;;-1.58;100.00
10093;BME280;5085;48.092;11.484;2022-12-11T04:19:32;94373.03;;;-1.60;100.00
10093;BME280;5085;48.092;11.484;2022-12-11T04:22:17;94373.22;;;-1.62;100.00
10093;BME280;5085;48.092;11.484;2022-12-11T04:25:03;94368.84;;;-1.68;100.00
10093;BME280;5085;48.092;11.484;2022-12-11T04:27:30;94372.69;;;-1.70;100.00
10093;BME280;5085;48.092;11.484;2022-12-11T04:30:20;94376.81;;;-1.74;100.00
10093;BME280;5085;48.092;11.484;2022-12-11T04:32:47;94368.53;;;-1.78;100.00
10093;BME280;5085;48.092;11.484;2022-12-11T04:35:14;94364.91;;;-1.84;100.00
10093;BME280;5085;48.092;11.484;2022-12-11T04:37:40;94365.56;;;-1.88;100.00
10093;BME280;5085;48.092;11.484;2022-12-11T04:40:10;94368.63;;;-1.91;100.00
10093;BME280;5085;48.092;11.484;2022-12-11T04:42:36;94368.28;;;-1.95;100.00
10093;BME280;5085;48.092;11.484;2022-12-11T04:45:03;94370.31;;;-1.97;100.00
10093;BME280;5085;48.092;11.484;2022-12-11T04:47:30;94368.94;;;-1.99;100.00
10093;BME280;5085;48.092;11.484;2022-12-11T04:49:56;94367.28;;;-2.01;100.00
10093;BME280;5085;48.092;11.484;2022-12-11T04:52:22;94369.94;;;-2.01;100.00
10093;BME280;5085;48.092;11.484;2022-12-11T04:54:48;94367.28;;;-2.01;100.00
10093;BME280;5085;48.092;11.484;2022-12-11T04:57:14;94367.28;;;-2.01;100.00
10093;BME280;5085;48.092;11.484;2022-12-11T04:59:40;94370.97;;;-2.02;100.00
10093;BME280;5085;48.092;11.484;2022-12-11T05:02:06;94357.53;;;-2.00;100.00
10093;BME280;5085;48.092;11.484;2022-12-11T05:04:33;94358.38;;;-1.99;100.00
10093;BME280;5085;48.092;11.484;2022-12-11T05:07:00;94365.69;;;-2.02;100.00
10093;BME280;5085;48.092;11.484;2022-12-11T05:09:26;94355.94;;;-2.01;100.00
10093;BME280;5085;48.092;11.484;2022-12-11T05:11:53;94358.56;;;-2.01;100.00
10093;BME280;5085;48.092;11.484;2022-12-11T05:14:20;94356.75;;;-2.01;100.00
10093;BME280;5085;48.092;11.484;2022-12-11T05:16:46;94349.06;;;-2.02;100.00
10093;BME280;5085;48.092;11.484;2022-12-11T05:19:12;94359.59;;;-2.02;100.00
10093;BME280;5085;48.092;11.484;2022-12-11T05:21:38;94352.50;;;-2.02;100.00
10093;BME280;5085;48.092;11.484;2022-12-11T05:24:04;94356.16;;;-2.03;100.00
10093;BME280;5085;48.092;11.484;2022-12-11T05:26:30;94351.47;;;-2.01;100.00
10093;BME280;5085;48.092;11.484;2022-12-11T05:28:56;94347.22;;;-2.02;100.00
10093;BME280;5085;48.092;11.484;2022-12-11T05:31:25;94352.50;;;-2.02;100.00
10093;BME280;5085;48.092;11.484;2022-12-11T05:33:52;94348.25;;;-2.03;100.00
10093;BME280;5085;48.092;11.484;2022-12-11T05:36:27;94351.09;;;-2.04;100.00
10093;BME280;5085;48.092;11.484;2022-12-11T05:38:54;94345.63;;;-2.03;100.00
10093;BME280;5085;48.092;11.484;2022-12-11T05:41:23;94353.91;;;-1.99;100.00
10093;BME280;5085;48.092;11.484;2022-12-11T05:43:49;94355.75;;;-1.99;100.00
10093;BME280;5085;48.092;11.484;2022-12-11T05:46:21;94354.72;;;-1.98;100.00
10093;BME280;5085;48.092;11.484;2022-12-11T05:48:49;94350.00;;;-1.96;100.00
10093;BME280;5085;48.092;11.484;2022-12-11T05:51:16;94348.97;;;-1.95;100.00
10093;BME280;5085;48.092;11.484;2022-12-11T05:53:43;94346.34;;;-1.95;100.00
10093;BME280;5085;48.092;11.484;2022-12-11T05:56:11;94348.41;;;-1.97;100.00
10093;BME280;5085;48.092;11.484;2022-12-11T05:58:38;94352.88;;;-1.98;100.00
10093;BME280;5085;48.092;11.484;2022-12-11T06:01:13;94346.00;;;-1.99;100.00
10093;BME280;5085;48.092;11.484;2022-12-11T06:03:40;94347.00;;;-2.00;100.00
10093;BME280;5085;48.092;11.484;2022-12-11T06:06:07;94347.00;;;-2.00;100.00
10093;BME280;5085;48.092;11.484;2022-12-11T06:08:33;94345.38;;;-2.01;100.00
10093;BME280;5085;48.092;11.484;2022-12-11T06:11:00;94341.94;;;-2.02;100.00
10093;BME280;5085;48.092;11.484;2022-12-11T06:13:26;94347.00;;;-2.00;100.00
10093;BME280;5085;48.092;11.484;2022-12-11T06:15:52;94344.97;;;-1.98;100.00
10093;BME280;5085;48.092;11.484;2022-12-11T06:18:18;94344.16;;;-1.98;100.00
10093;BME280;5085;48.092;11.484;2022-12-11T06:20:44;94341.53;;;-1.98;100.00
10093;BME280;5085;48.092;11.484;2022-12-11T06:23:10;94335.00;;;-1.96;100.00
10093;BME280;5085;48.092;11.484;2022-12-11T06:25:39;94350.00;;;-1.96;100.00
10093;BME280;5085;48.092;11.484;2022-12-11T06:28:05;94336.81;;;-1.96;100.00
10093;BME280;5085;48.092;11.484;2022-12-11T06:30:31;94344.16;;;-1.98;100.00
10093;BME280;5085;48.092;11.484;2022-12-11T06:32:58;94345.78;;;-1.97;100.00
10093;BME280;5085;48.092;11.484;2022-12-11T06:35:24;94342.09;;;-1.96;100.00
10093;BME280;5085;48.092;11.484;2022-12-11T06:37:50;94342.91;;;-1.96;100.00
10093;BME280;5085;48.092;11.484;2022-12-11T06:40:17;94344.53;;;-1.95;100.00
10093;BME280;5085;48.092;11.484;2022-12-11T06:42:43;94341.28;;;-1.97;100.00
10093;BME280;5085;48.092;11.484;2022-12-11T06:45:09;94334.41;;;-1.98;100.00
10093;BME280;5085;48.092;11.484;2022-12-11T06:47:35;94333.63;;;-1.98;100.00
10093;BME280;5085;48.092;11.484;2022-12-11T06:50:02;94341.94;;;-2.02;100.00
10093;BME280;5085;48.092;11.484;2022-12-11T06:52:28;94337.72;;;-2.03;100.00
10093;BME280;5085;48.092;11.484;2022-12-11T06:54:54;94339.53;;;-2.03;100.00
10093;BME280;5085;48.092;11.484;2022-12-11T06:57:21;94343.78;;;-2.02;100.00
10093;BME280;5085;48.092;11.484;2022-12-11T06:59:47;94339.31;;;-2.02;100.00
10093;BME280;5085;48.092;11.484;2022-12-11T07:02:18;94342.75;;;-2.01;100.00
10093;BME280;5085;48.092;11.484;2022-12-11T07:04:44;94346.19;;;-2.01;100.00
10093;BME280;5085;48.092;11.484;2022-12-11T07:07:11;94347.00;;;-2.00;100.00
10093;BME280;5085;48.092;11.484;2022-12-11T07:09:38;94343.13;;;-1.97;100.00
10093;BME280;5085;48.092;11.484;2022-12-11T07:12:05;94347.38;;;-1.96;100.00
10093;BME280;5085;48.092;11.484;2022-12-11T07:14:32;94347.19;;;-1.95;100.00
10093;BME280;5085;48.092;11.484;2022-12-11T07:16:58;94352.44;;;-1.95;100.00
10093;BME280;5085;48.092;11.484;2022-12-11T07:19:25;94354.47;;;-1.97;100.00
10093;BME280;5085;48.092;11.484;2022-12-11T07:21:51;94353.69;;;-1.97;100.00
10093;BME280;5085;48.092;11.484;2022-12-11T07:24:17;94365.63;;;-1.95;100.00
10093;BME280;5085;48.092;11.484;2022-12-11T07:26:43;94355.28;;;-1.96;100.00
10093;BME280;5085;48.092;11.484;2022-12-11T07:29:09;94367.44;;;-1.95;100.00
10093;BME280;5085;48.092;11.484;2022-12-11T07:31:36;94364.63;;;-1.94;100.00
10093;BME280;5085;48.092;11.484;2022-12-11T07:34:05;94369.66;;;-1.92;100.00
10093;BME280;5085;48.092;11.484;2022-12-11T07:36:31;94373.72;;;-1.90;100.00
10093;BME280;5085;48.092;11.484;2022-12-11T07:38:58;94365.56;;;-1.88;100.00
10093;BME280;5085;48.092;11.484;2022-12-11T07:41:25;94374.44;;;-1.83;100.00
10093;BME280;5085;48.092;11.484;2022-12-11T07:43:54;94369.53;;;-1.79;100.00
10093;BME280;5085;48.092;11.484;2022-12-11T07:46:26;94370.34;;;-1.79;100.00
10093;BME280;5085;48.092;11.484;2022-12-11T07:48:53;94370.56;;;-1.80;100.00
10093;BME280;5085;48.092;11.484;2022-12-11T07:51:22;94365.06;;;-1.79;100.00
10093;BME280;5085;48.092;11.484;2022-12-11T07:53:51;94360.97;;;-1.74;100.00
10093;BME280;5085;48.092;11.484;2022-12-11T07:56:18;94364.59;;;-1.69;100.00
10093;BME280;5085;48.092;11.484;2022-12-11T07:58:44;94364.97;;;-1.65;100.00
10093;BME280;5085;48.092;11.484;2022-12-11T08:01:16;94366.72;;;-1.59;100.00
10093;BME280;5085;48.092;11.484;2022-12-11T08:03:43;94369.75;;;-1.56;100.00
10093;BME280;5085;48.092;11.484;2022-12-11T08:06:10;94364.03;;;-1.53;100.00
10093;BME280;5085;48.092;11.484;2022-12-11T08:08:37;94369.66;;;-1.49;100.00
10093;BME280;5085;48.092;11.484;2022-12-11T08:11:09;94364.31;;;-1.42;100.00
10093;BME280;5085;48.092;11.484;2022-12-11T08:13:36;94373.56;;;-1.33;100.00
10093;BME280;5085;48.092;11.484;2022-12-11T08:16:07;94365.13;;;-1.23;100.00
10093;BME280;5085;48.092;11.484;2022-12-11T08:18:35;94361.97;;;-1.14;100.00
10093;BME280;5085;48.092;11.484;2022-12-11T08:21:06;94365.31;;;-1.07;100.00
10093;BME280;5085;48.092;11.484;2022-12-11T08:23:32;94364.47;;;-1.01;100.00
10093;BME280;5085;48.092;11.484;2022-12-11T08:26:01;94371.28;;;-0.93;100.00
10093;BME280;5085;48.092;11.484;2022-12-11T08:28:27;94360.63;;;-0.86;100.00
10093;BME280;5085;48.092;11.484;2022-12-11T08:33:42;94375.13;;;-0.77;100.00
10093;BME280;5085;48.092;11.484;2022-12-11T08:36:11;94378.94;;;-0.73;100.00
10093;BME280;5085;48.092;11.484;2022-12-11T08:38:38;94373.09;;;-0.75;100.00
10093;BME280;5085;48.092;11.484;2022-12-11T08:41:18;94376.97;;;-0.78;100.00
10093;BME280;5085;48.092;11.484;2022-12-11T08:43:44;94381.88;;;-0.81;100.00
10093;BME280;5085;48.092;11.484;2022-12-11T08:46:12;94386.00;;;-0.85;100.00
10093;BME280;5085;48.092;11.484;2022-12-11T08:48:39;94388.63;;;-0.85;100.00
10093;BME280;5085;48.092;11.484;2022-12-11T08:51:09;94392.81;;;-0.78;100.00
10093;BME280;5085;48.092;11.484;2022-12-11T08:53:35;94389.69;;;-0.68;100.00
10093;BME280;5085;48.092;11.484;2022-12-11T08:56:02;94396.38;;;-0.54;100.00
10093;BME280;5085;48.092;11.484;2022-12-11T08:58:29;94389.31;;;-0.41;100.00
10093;BME280;5085;48.092;11.484;2022-12-11T09:00:55;94396.69;;;-0.32;100.00
10093;BME280;5085;48.092;11.484;2022-12-11T09:03:21;94397.78;;;-0.21;100.00
10093;BME280;5085;48.092;11.484;2022-12-11T09:05:47;94399.63;;;-0.10;100.00
10093;BME280;5085;48.092;11.484;2022-12-11T09:08:13;94398.72;;;-0.04;100.00
10093;BME280;5085;48.092;11.484;2022-12-11T09:10:39;94396.66;;;-0.02;100.00
10093;BME280;5085;48.092;11.484;2022-12-11T09:13:06;94388.84;;;0.04;100.00
10093;BME280;5085;48.092;11.484;2022-12-11T09:15:32;94395.31;;;0.19;100.00
10093;BME280;5085;48.092;11.484;2022-12-11T09:17:58;94396.72;;;0.22;100.00
10093;BME280;5085;48.092;11.484;2022-12-11T09:20:24;94394.97;;;0.16;100.00
10093;BME280;5085;48.092;11.484;2022-12-11T09:22:50;94389.09;;;0.14;100.00
10093;BME280;5085;48.092;11.484;2022-12-11T09:25:16;94386.53;;;0.07;100.00
10093;BME280;5085;48.092;11.484;2022-12-11T09:27:42;94383.22;;;0.00;100.00
10093;BME280;5085;48.092;11.484;2022-12-11T09:30:08;94389.16;;;-0.05;100.00
10093;BME280;5085;48.092;11.484;2022-12-11T09:32:34;94395.94;;;-0.09;100.00
10093;BME280;5085;48.092;11.484;2022-12-11T09:35:04;94392.03;;;-0.06;100.00
10093;BME280;5085;48.092;11.484;2022-12-11T09:37:32;94387.22;;;0.03;100.00
10093;BME280;5085;48.092;11.484;2022-12-11T09:39:58;94391.94;;;0.12;100.00
10093;BME280;5085;48.092;11.484;2022-12-11T09:42:52;94379.78;;;0.23;100.00
10093;BME280;5085;48.092;11.484;2022-12-11T09:45:19;94380.47;;;0.54;100.00
10093;BME280;5085;48.092;11.484;2022-12-11T09:47:51;94380.69;;;0.87;100.00
10093;BME280;5085;48.092;11.484;2022-12-11T09:50:22;94372.47;;;1.00;100.00
10093;BME280;5085;48.092;11.484;2022-12-11T09:53:10;94374.91;;;1.02;100.00
10093;BME280;5085;48.092;11.484;2022-12-11T09:55:46;94373.28;;;1.01;100.00
10093;BME280;5085;48.092;11.484;2022-12-11T10:01:28;94371.81;;;0.82;100.00
10093;BME280;5085;48.092;11.484;2022-12-11T10:04:29;94369.88;;;0.77;100.00
10093;BME280;5085;48.092;11.484;2022-12-11T10:07:14;94367.09;;;0.84;100.00
10093;BME280;5085;48.092;11.484;2022-12-11T10:09:48;94369.72;;;0.95;100.00
10093;BME280;5085;48.092;11.484;2022-12-11T10:12:33;94367.16;;;1.00;100.00
10093;BME280;5085;48.092;11.484;2022-12-11T10:15:17;94357.66;;;1.28;100.00
10093;BME280;5085;48.092;11.484;2022-12-11T10:17:45;94350.88;;;1.94;98.01
10093;BME280;5085;48.092;11.484;2022-12-11T10:20:28;94349.13;;;2.17;93.53
10093;BME280;5085;48.092;11.484;2022-12-11T10:22:57;94346.34;;;2.45;92.15
10093;BME280;5085;48.092;11.484;2022-12-11T10:25:26;94345.75;;;2.38;91.43
10093;BME280;5085;48.092;11.484;2022-12-11T10:27:53;94341.63;;;2.31;89.69
10093;BME280;5085;48.092;11.484;2022-12-11T10:30:32;94343.22;;;2.32;89.15
10093;BME280;5085;48.092;11.484;2022-12-11T10:35:47;94342.84;;;2.23;88.31
10093;BME280;5085;48.092;11.484;2022-12-11T10:38:27;94347.59;;;2.21;86.09
10093;BME280;5085;48.092;11.484;2022-12-11T10:41:18;94337.53;;;2.06;87.88
10093;BME280;5085;48.092;11.484;2022-12-11T10:43:44;94337.50;;;1.89;87.96
10093;BME280;5085;48.092;11.484;2022-12-11T10:46:22;94337.50;;;1.72;90.67
10093;BME280;5085;48.092;11.484;2022-12-11T10:48:56;94332.63;;;1.53;90.49
10093;BME280;5085;48.092;11.484;2022-12-11T10:51:28;94329.94;;;1.36;92.16
10093;BME280;5085;48.092;11.484;2022-12-11T10:54:07;94330.81;;;1.24;93.60
10093;BME280;5085;48.092;11.484;2022-12-11T10:56:44;94319.28;;;1.19;94.72
10093;BME280;5085;48.092;11.484;2022-12-11T10:59:32;94321.03;;;1.13;97.46
10093;BME280;5085;48.092;11.484;2022-12-11T11:01:59;94317.63;;;1.01;97.26
10093;BME280;5085;48.092;11.484;2022-12-11T11:04:29;94309.59;;;0.84;98.80
10093;BME280;5085;48.092;11.484;2022-12-11T11:07:21;94307.66;;;0.68;99.49
10093;BME280;5085;48.092;11.484;2022-12-11T11:09:49;94317.34;;;0.62;100.00
10093;BME280;5085;48.092;11.484;2022-12-11T11:12:23;94306.41;;;0.59;100.00
10093;BME280;5085;48.092;11.484;2022-12-11T11:15:01;94303.81;;;0.47;100.00
10093;BME280;5085;48.092;11.484;2022-12-11T11:17:30;94308.06;;;0.36;100.00
10093;BME280;5085;48.092;11.484;2022-12-11T11:20:00;94301.41;;;0.22;99.74
10093;BME280;5085;48.092;11.484;2022-12-11T11:22:30;94298.06;;;0.03;100.00
10093;BME280;5085;48.092;11.484;2022-12-11T11:24:58;94297.13;;;-0.14;100.00
10093;BME280;5085;48.092;11.484;2022-12-11T11:27:40;94294.13;;;-0.18;100.00
10093;BME280;5085;48.092;11.484;2022-12-11T11:30:19;94288.16;;;-0.13;100.00
10093;BME280;5085;48.092;11.484;2022-12-11T11:32:46;94280.47;;;-0.03;100.00
10093;BME280;5085;48.092;11.484;2022-12-11T11:37:43;94275.06;;;-0.08;100.00
10093;BME280;5085;48.092;11.484;2022-12-11T11:40:25;94272.53;;;-0.15;100.00
10093;BME280;5085;48.092;11.484;2022-12-11T11:43:03;94268.38;;;-0.22;100.00
10093;BME280;5085;48.092;11.484;2022-12-11T11:45:44;94263.53;;;-0.26;100.00
10093;BME280;5085;48.092;11.484;2022-12-11T11:48:34;94262.97;;;-0.28;100.00
10093;BME280;5085;48.092;11.484;2022-12-11T11:53:59;94260.91;;;-0.37;100.00
10093;BME280;5085;48.092;11.484;2022-12-11T11:56:32;94268.22;;;-0.39;100.00
10093;BME280;5085;48.092;11.484;2022-12-11T11:59:14;94267.56;;;-0.46;100.00
10093;BME280;5085;48.092;11.484;2022-12-11T12:01:43;94274.91;;;-0.48;100.00
10093;BME280;5085;48.092;11.484;2022-12-11T12:04:10;94269.59;;;-0.48;100.00
10093;BME280;5085;48.092;11.484;2022-12-11T12:09:36;94260.53;;;-0.17;100.00
10093;BME280;5085;48.092;11.484;2022-12-11T12:12:34;94263.00;;;-0.04;100.00
10093;BME280;5085;48.092;11.484;2022-12-11T12:17:31;94254.81;;;-0.03;100.00
10093;BME280;5085;48.092;11.484;2022-12-11T12:20:06;94249.63;;;-0.09;100.00
10093;BME280;5085;48.092;11.484;2022-12-11T12:25:34;94253.66;;;-0.18;100.00
10093;BME280;5085;48.092;11.484;2022-12-11T12:28:13;94259.19;;;-0.20;100.00
10093;BME280;5085;48.092;11.484;2022-12-11T12:34:12;94263.66;;;-0.09;100.00
10093;BME280;5085;48.092;11.484;2022-12-11T12:36:58;94257.47;;;-0.03;100.00
10093;BME280;5085;48.092;11.484;2022-12-11T12:39:40;94252.63;;;0.06;100.00
10093;BME280;5085;48.092;11.484;2022-12-11T12:44:56;94256.47;;;0.91;100.00
10093;BME280;5085;48.092;11.484;2022-12-11T12:47:27;94258.63;;;1.85;93.80
10093;BME280;5085;48.092;11.484;2022-12-11T12:49:57;94259.00;;;2.71;86.03
10093;BME280;5085;48.092;11.484;2022-12-11T12:52:26;94258.69;;;3.65;76.89
10093;BME280;5085;48.092;11.484;2022-12-11T12:54:57;94252.91;;;4.11;71.59
10093;BME280;5085;48.092;11.484;2022-12-11T12:57:47;94253.22;;;3.82;71.02
10093;BME280;5085;48.092;11.484;2022-12-11T13:00:29;94253.38;;;3.11;72.89
10093;BME280;5085;48.092;11.484;2022-12-11T13:02:57;94258.13;;;2.43;78.26
10093;BME280;5085;48.092;11.484;2022-12-11T13:05:26;94249.06;;;1.84;82.78
10093;BME280;5085;48.092;11.484;2022-12-11T13:07:56;94253.19;;;1.29;86.10
10093;BME280;5085;48.092;11.484;2022-12-11T13:10:30;94255.66;;;0.90;90.06
10093;BME280;5085;48.092;11.484;2022-12-11T13:12:57;94253.78;;;0.62;93.11
10093;BME280;5085;48.092;11.484;2022-12-11T13:17:56;94254.44;;;0.29;95.30
10093;BME280;5085;48.092;11.484;2022-12-11T13:20:26;94248.81;;;0.14;96.00
10093;BME280;5085;48.092;11.484;2022-12-11T13:22:55;94251.81;;;0.06;97.29
10093;BME280;5085;48.092;11.484;2022-12-11T13:25:46;94248.72;;;-0.03;99.30
10093;BME280;5085;48.092;11.484;2022-12-11T13:33:32;94253.44;;;-0.29;100.00
10093;BME280;5085;48.092;11.484;2022-12-11T13:38:53;94256.28;;;-0.42;100.00
10093;BME280;5085;48.092;11.484;2022-12-11T13:41:19;94263.63;;;-0.44;100.00
10093;BME280;5085;48.092;11.484;2022-12-11T13:43:47;94253.84;;;-0.43;100.00
10093;BME280;5085;48.092;11.484;2022-12-11T13:46:18;94252.00;;;-0.43;100.00
10093;BME280;5085;48.092;11.484;2022-12-11T13:48:52;94253.66;;;-0.42;100.00
10093;BME280;5085;48.092;11.484;2022-12-11T13:51:23;94243.53;;;-0.33;100.00
10093;BME280;5085;48.092;11.484;2022-12-11T13:54:13;94246.41;;;-0.23;100.00
10093;BME280;5085;48.092;11.484;2022-12-11T13:56:51;94244.47;;;-0.16;100.00
10093;BME280;5085;48.092;11.484;2022-12-11T13:59:24;94248.63;;;-0.08;100.00
10093;BME280;5085;48.092;11.484;2022-12-11T14:01:52;94240.31;;;0.00;100.00